Time;durP1;ratioP1;P1;durP2;ratioP2;P2;SDS_P1;SDS_P2;PMS_P1;PMS_P2;Temp;Humidity;BMP_temperature;BMP_pressure;BME280_temperature;BME280_humidity;BME280_pressure;Samples;Min_cycle;Max_cycle;Signal;HPM_P1;HPM_P2
2022/09/11 00:01:47;;;;;;;13.05;11.70;;;16.90;66.50;;;;;;4949471;28;20660;-68
2022/09/11 00:04:13;;;;;;;14.15;10.57;;;16.90;66.50;;;;;;4948882;28;20123;-66
2022/09/11 00:06:39;;;;;;;11.45;10.25;;;16.90;66.50;;;;;;4939230;29;21013;-66
2022/09/11 00:09:06;;;;;;;11.55;10.38;;;16.90;66.50;;;;;;4918166;29;20369;-66
2022/09/11 00:11:39;;;;;;;11.52;10.07;;;16.90;66.50;;;;;;4924062;29;20036;-66
2022/09/11 00:14:05;;;;;;;11.75;10.55;;;16.90;66.40;;;;;;4922196;29;20047;-66
2022/09/11 00:16:34;;;;;;;9.35;8.45;;;16.90;66.40;;;;;;4936970;29;20477;-66
2022/09/11 00:19:12;;;;;;;13.88;12.48;;;16.90;66.40;;;;;;4916464;29;20523;-66
2022/09/11 00:21:38;;;;;;;10.85;9.82;;;16.90;66.40;;;;;;4950116;28;20043;-66
2022/09/11 00:24:04;;;;;;;9.88;8.90;;;16.90;66.40;;;;;;4933676;29;20044;-66
2022/09/11 00:26:30;;;;;;;11.18;10.07;;;16.80;66.30;;;;;;4937100;29;20161;-66
2022/09/11 00:28:56;;;;;;;10.70;9.60;;;16.80;66.30;;;;;;4916509;29;20181;-66
2022/09/11 00:31:24;;;;;;;10.80;9.32;;;16.80;66.30;;;;;;4926795;29;20047;-66
2022/09/11 00:33:50;;;;;;;10.38;9.38;;;16.80;66.30;;;;;;4931610;29;20059;-66
2022/09/11 00:36:19;;;;;;;10.35;9.35;;;16.80;66.30;;;;;;4920094;29;20452;-66
2022/09/11 00:38:46;;;;;;;11.02;9.70;;;16.80;66.30;;;;;;4933820;29;20528;-66
2022/09/11 00:41:18;;;;;;;10.07;9.05;;;16.80;66.30;;;;;;4915071;29;20040;-66
2022/09/11 00:44:04;;;;;;;9.77;8.77;;;16.70;66.30;;;;;;4933024;29;20056;-66
2022/09/11 00:46:59;;;;;;;11.25;10.20;;;16.70;66.20;;;;;;4933728;29;20352;-66
2022/09/11 00:49:29;;;;;;;;;;;16.70;66.30;;;;;;4916209;29;20106;-66
2022/09/11 00:52:04;;;;;;;10.45;8.95;;;16.70;66.10;;;;;;4919845;29;19958;-66
2022/09/11 00:54:35;;;;;;;10.88;9.77;;;16.60;66.30;;;;;;4915555;29;20048;-66
2022/09/11 00:57:05;;;;;;;10.63;9.63;;;16.70;66.50;;;;;;4927227;29;20048;-66
2022/09/11 00:59:32;;;;;;;11.30;10.20;;;16.60;66.40;;;;;;4948280;28;20047;-66
2022/09/11 01:01:57;;;;;;;10.48;9.48;;;16.60;66.40;;;;;;4949080;28;20058;-66
2022/09/11 01:04:23;;;;;;;10.82;9.73;;;16.60;66.50;;;;;;4933127;29;20408;-66
2022/09/11 01:06:55;;;;;;;11.18;10.00;;;16.60;66.50;;;;;;4932173;29;20151;-66
2022/09/11 01:09:21;;;;;;;10.52;9.45;;;16.60;66.50;;;;;;4933083;29;20404;-66
2022/09/11 01:12:01;;;;;;;9.93;8.93;;;16.60;66.50;;;;;;4937471;29;20080;-66
2022/09/11 01:14:51;;;;;;;10.73;9.63;;;16.60;66.50;;;;;;4922164;29;20267;-66
2022/09/11 01:17:23;;;;;;;11.50;10.38;;;16.50;66.40;;;;;;4931101;29;20055;-66
2022/09/11 01:20:19;;;;;;;10.55;9.27;;;16.50;66.50;;;;;;4951235;29;20054;-66
2022/09/11 01:23:12;;;;;;;9.52;8.63;;;16.50;66.60;;;;;;4924248;29;20051;-66
2022/09/11 01:26:10;;;;;;;9.77;8.88;;;16.50;66.70;;;;;;4918925;29;20032;-66
2022/09/11 01:28:50;;;;;;;9.85;8.85;;;16.50;66.70;;;;;;4901857;29;20068;-66
2022/09/11 01:31:21;;;;;;;10.25;9.35;;;16.40;66.70;;;;;;4932817;29;20513;-66
2022/09/11 01:34:21;;;;;;;8.02;7.22;;;16.40;66.70;;;;;;4934739;29;20118;-66
2022/09/11 01:36:54;;;;;;;8.48;7.30;;;16.40;66.70;;;;;;4925499;29;20079;-67
2022/09/11 01:39:24;;;;;;;7.68;6.97;;;16.30;66.70;;;;;;4922099;29;20062;-66
2022/09/11 01:42:01;;;;;;;8.88;7.97;;;16.40;66.90;;;;;;4923155;29;20047;-66
2022/09/11 01:44:33;;;;;;;9.50;8.57;;;16.30;66.80;;;;;;4951519;29;20055;-66
2022/09/11 01:47:01;;;;;;;10.37;9.27;;;16.30;66.80;;;;;;4928572;29;20135;-66
2022/09/11 01:50:02;;;;;;;10.18;9.18;;;16.30;66.90;;;;;;4929513;29;20039;-66
2022/09/11 01:53:03;;;;;;;10.23;9.27;;;16.30;66.80;;;;;;4928160;29;20043;-66
2022/09/11 01:55:41;;;;;;;9.05;8.15;;;16.30;66.90;;;;;;4910417;29;20048;-66
2022/09/11 01:58:10;;;;;;;9.77;8.82;;;16.30;66.90;;;;;;4927788;29;20047;-66
2022/09/11 02:00:38;;;;;;;10.02;9.05;;;16.30;66.90;;;;;;4930698;29;20051;-66
2022/09/11 02:03:19;;;;;;;8.63;7.82;;;16.20;66.90;;;;;;4939754;29;20044;-66
2022/09/11 02:05:52;;;;;;;8.60;7.78;;;16.20;66.70;;;;;;4934779;29;20043;-66
2022/09/11 02:08:28;;;;;;;8.35;7.55;;;16.20;66.70;;;;;;4931673;29;20074;-66
2022/09/11 02:11:02;;;;;;;8.60;7.68;;;16.20;66.60;;;;;;4950615;29;20058;-68
2022/09/11 02:13:49;;;;;;;8.30;7.45;;;16.20;66.60;;;;;;4920495;29;20090;-69
2022/09/11 02:16:28;;;;;;;9.40;7.78;;;16.10;66.60;;;;;;4934874;29;20126;-69
2022/09/11 02:19:00;;;;;;;12.15;10.60;;;16.10;66.40;;;;;;4933827;29;20090;-69
2022/09/11 02:21:26;;;;;;;9.27;8.25;;;16.10;66.40;;;;;;4916898;29;20506;-69
2022/09/11 02:23:54;;;;;;;9.15;7.88;;;16.10;66.40;;;;;;4931378;29;20047;-69
2022/09/11 02:26:25;;;;;;;7.95;7.13;;;16.10;66.30;;;;;;4946714;28;20079;-69
2022/09/11 02:28:52;;;;;;;8.00;7.20;;;16.10;66.30;;;;;;4926602;29;20127;-69
2022/09/11 02:31:18;;;;;;;7.78;6.97;;;16.00;66.20;;;;;;4931417;29;20075;-69
2022/09/11 02:33:44;;;;;;;7.35;6.65;;;16.00;66.20;;;;;;4930070;29;20056;-69
2022/09/11 02:36:25;;;;;;;7.30;6.55;;;16.00;66.30;;;;;;4918758;29;20082;-69
2022/09/11 02:39:14;;;;;;;8.07;6.65;;;16.10;66.30;;;;;;4928687;29;20040;-69
2022/09/11 02:42:07;;;;;;;6.75;6.15;;;16.00;66.30;;;;;;4924920;29;20086;-69
2022/09/11 02:44:58;;;;;;;7.18;6.47;;;16.00;66.30;;;;;;4934573;29;20106;-69
2022/09/11 02:47:48;;;;;;;7.95;6.53;;;16.00;66.20;;;;;;4933024;29;20496;-69
2022/09/11 02:50:27;;;;;;;7.07;6.07;;;16.00;66.10;;;;;;4916585;29;20046;-69
2022/09/11 02:53:01;;;;;;;7.18;6.47;;;15.90;66.10;;;;;;4933333;29;20062;-69
2022/09/11 02:55:47;;;;;;;7.22;6.35;;;15.90;66.20;;;;;;4951484;29;20473;-69
2022/09/11 02:58:29;;;;;;;6.85;6.25;;;15.90;66.00;;;;;;4920559;29;20052;-69
2022/09/11 03:00:58;;;;;;;6.40;5.80;;;15.90;66.00;;;;;;4917365;29;20088;-69
2022/09/11 03:03:24;;;;;;;7.00;6.40;;;15.80;66.10;;;;;;4916777;29;20048;-69
2022/09/11 03:05:50;;;;;;;7.00;6.40;;;15.80;66.00;;;;;;4926419;29;20047;-69
2022/09/11 03:08:16;;;;;;;6.85;6.25;;;15.80;66.00;;;;;;4945742;29;20130;-69
2022/09/11 03:10:45;;;;;;;6.50;5.90;;;15.80;66.00;;;;;;4919951;29;20095;-69
2022/09/11 03:13:14;;;;;;;7.00;5.90;;;15.80;66.00;;;;;;4922069;29;20098;-69
2022/09/11 03:15:43;;;;;;;6.90;6.20;;;15.80;66.40;;;;;;4933726;29;20039;-69
2022/09/11 03:18:10;;;;;;;6.95;6.32;;;15.80;66.10;;;;;;4932756;29;20050;-69
2022/09/11 03:20:37;;;;;;;6.72;6.13;;;15.70;66.10;;;;;;4934926;29;20055;-69
2022/09/11 03:23:04;;;;;;;6.15;5.60;;;15.70;66.10;;;;;;4938827;28;20543;-69
2022/09/11 03:25:30;;;;;;;6.72;5.97;;;15.70;66.20;;;;;;4940902;29;20051;-69
2022/09/11 03:27:56;;;;;;;5.65;5.15;;;15.70;66.20;;;;;;4900318;29;20052;-69
2022/09/11 03:30:21;;;;;;;5.32;4.82;;;15.70;66.20;;;;;;4950390;28;20047;-69
2022/09/11 03:32:47;;;;;;;5.32;4.82;;;15.70;66.10;;;;;;4932670;29;20464;-69
2022/09/11 03:35:13;;;;;;;6.28;4.63;;;15.70;66.10;;;;;;4917611;29;20107;-69
2022/09/11 03:37:38;;;;;;;5.88;5.38;;;15.70;66.20;;;;;;4900018;29;20052;-69
2022/09/11 03:40:05;;;;;;;5.75;5.25;;;15.60;66.10;;;;;;4916710;29;20044;-69
2022/09/11 03:42:32;;;;;;;5.57;5.07;;;15.60;66.10;;;;;;4927574;29;20040;-69
2022/09/11 03:44:57;;;;;;;5.18;4.68;;;15.60;66.10;;;;;;4932713;29;20546;-66
2022/09/11 03:47:23;;;;;;;5.85;5.25;;;15.60;66.20;;;;;;4920535;29;20070;-66
2022/09/11 03:49:49;;;;;;;5.75;5.25;;;15.60;66.30;;;;;;4928287;29;20036;-66
2022/09/11 03:52:14;;;;;;;5.65;5.15;;;15.60;66.30;;;;;;4915280;29;20043;-66
2022/09/11 03:54:41;;;;;;;5.93;5.43;;;15.60;66.40;;;;;;4926977;29;20036;-66
2022/09/11 03:57:06;;;;;;;4.70;4.05;;;15.60;66.50;;;;;;4933272;29;20051;-66
2022/09/11 03:59:32;;;;;;;4.80;4.40;;;15.60;66.50;;;;;;4934185;29;20055;-65
2022/09/11 04:01:58;;;;;;;4.60;4.10;;;15.50;66.90;;;;;;4928020;29;20408;-66
2022/09/11 04:04:23;;;;;;;4.75;4.00;;;15.50;66.50;;;;;;4945880;29;20048;-66
2022/09/11 04:06:49;;;;;;;3.78;3.47;;;15.50;66.50;;;;;;4941828;29;20047;-65
2022/09/11 04:09:16;;;;;;;3.63;3.33;;;15.50;66.60;;;;;;4919485;29;20047;-66
2022/09/11 04:11:41;;;;;;;3.28;2.97;;;15.50;66.60;;;;;;4944716;29;20449;-66
2022/09/11 04:14:08;;;;;;;3.47;3.17;;;15.50;66.60;;;;;;4902473;29;20052;-66
2022/09/11 04:16:34;;;;;;;3.15;2.85;;;15.50;66.50;;;;;;4918091;29;20059;-66
2022/09/11 04:19:00;;;;;;;3.40;3.05;;;15.50;66.50;;;;;;4926730;29;20043;-66
2022/09/11 04:21:27;;;;;;;4.00;3.63;;;15.50;66.50;;;;;;4930190;29;20399;-66
2022/09/11 04:23:55;;;;;;;3.22;2.92;;;15.50;66.50;;;;;;4927412;29;20052;-66
2022/09/11 04:26:23;;;;;;;3.88;3.58;;;15.50;66.50;;;;;;4926753;29;20071;-66
2022/09/11 04:28:49;;;;;;;4.47;3.65;;;15.50;66.50;;;;;;4922555;29;20499;-66
2022/09/11 04:31:17;;;;;;;4.00;3.28;;;15.40;66.50;;;;;;4916629;29;20052;-66
2022/09/11 04:33:44;;;;;;;3.33;3.03;;;15.40;66.50;;;;;;4925272;29;20050;-65
2022/09/11 04:36:12;;;;;;;3.55;3.25;;;15.40;66.40;;;;;;4926308;29;20044;-66
2022/09/11 04:38:39;;;;;;;3.92;3.50;;;15.40;66.40;;;;;;4915733;29;20047;-66
2022/09/11 04:41:06;;;;;;;3.42;3.13;;;15.40;66.50;;;;;;4949825;28;20075;-66
2022/09/11 04:43:37;;;;;;;3.72;3.42;;;15.40;66.50;;;;;;4937126;29;20059;-66
2022/09/11 04:46:09;;;;;;;4.03;3.30;;;15.40;66.50;;;;;;4937093;29;20407;-66
2022/09/11 04:48:38;;;;;;;4.63;4.22;;;15.30;66.50;;;;;;4927608;29;20052;-66
2022/09/11 04:51:05;;;;;;;4.90;4.40;;;15.30;66.40;;;;;;4928366;29;20136;-66
2022/09/11 04:53:32;;;;;;;4.22;3.83;;;15.30;66.40;;;;;;4923968;29;20048;-66
2022/09/11 04:56:07;;;;;;;4.72;4.15;;;15.30;66.30;;;;;;4930619;29;20063;-66
2022/09/11 04:58:34;;;;;;;6.80;6.20;;;15.30;66.30;;;;;;4937766;29;20055;-66
2022/09/11 05:01:04;;;;;;;5.28;4.07;;;15.30;66.30;;;;;;4936081;29;20047;-66
2022/09/11 05:03:30;;;;;;;4.45;4.05;;;15.30;66.20;;;;;;4934633;29;20047;-66
2022/09/11 05:05:56;;;;;;;3.83;3.50;;;15.30;66.30;;;;;;4923880;29;20075;-66
2022/09/11 05:08:25;;;;;;;3.60;3.30;;;15.30;66.30;;;;;;4934354;29;20492;-66
2022/09/11 05:10:51;;;;;;;4.28;3.88;;;15.30;66.20;;;;;;4936394;29;20044;-66
2022/09/11 05:13:17;;;;;;;4.30;3.90;;;15.20;66.20;;;;;;4953160;29;20051;-66
2022/09/11 05:15:43;;;;;;;4.05;3.65;;;15.20;66.30;;;;;;4946751;29;20048;-66
2022/09/11 05:18:10;;;;;;;4.90;4.40;;;15.20;66.30;;;;;;4927207;29;20044;-65
2022/09/11 05:20:36;;;;;;;4.88;4.43;;;15.20;66.30;;;;;;4933082;29;20040;-66
2022/09/11 05:23:01;;;;;;;5.65;4.63;;;15.20;66.30;;;;;;4924649;29;20454;-66
2022/09/11 05:25:30;;;;;;;6.93;4.30;;;15.20;66.40;;;;;;4924709;29;20072;-66
2022/09/11 05:27:56;;;;;;;5.50;5.00;;;15.20;66.40;;;;;;4918887;29;20064;-65
2022/09/11 05:30:22;;;;;;;6.03;5.43;;;15.20;66.50;;;;;;4919516;29;20044;-66
2022/09/11 05:32:53;;;;;;;5.25;4.75;;;15.20;66.40;;;;;;4935813;29;20075;-65
2022/09/11 05:35:22;;;;;;;5.13;4.63;;;15.20;66.40;;;;;;4931063;29;20126;-66
2022/09/11 05:37:48;;;;;;;4.50;4.10;;;15.10;66.40;;;;;;4936271;29;20054;-65
2022/09/11 05:40:14;;;;;;;5.70;5.20;;;15.10;66.40;;;;;;4926915;29;20044;-66
2022/09/11 05:42:40;;;;;;;4.43;3.97;;;15.10;66.50;;;;;;4948505;28;20044;-66
2022/09/11 05:45:06;;;;;;;4.70;4.30;;;15.10;66.30;;;;;;4952143;28;20075;-66
2022/09/11 05:47:32;;;;;;;5.63;5.03;;;15.10;66.30;;;;;;4935302;29;20043;-66
2022/09/11 05:49:58;;;;;;;5.63;5.13;;;15.10;66.40;;;;;;4943503;29;20056;-65
2022/09/11 05:52:24;;;;;;;5.78;5.18;;;15.10;66.50;;;;;;4927419;29;20408;-65
2022/09/11 05:54:52;;;;;;;5.57;5.07;;;15.10;66.60;;;;;;4917346;29;20083;-66
2022/09/11 05:57:18;;;;;;;5.70;5.20;;;15.10;66.70;;;;;;4948645;28;20048;-66
2022/09/11 05:59:44;;;;;;;7.28;6.57;;;15.10;66.80;;;;;;4920745;29;20083;-66
2022/09/11 06:02:10;;;;;;;5.78;5.28;;;15.10;66.90;;;;;;4939644;29;20079;-66
2022/09/11 06:04:36;;;;;;;6.03;5.45;;;15.10;67.00;;;;;;4930927;29;20148;-66
2022/09/11 06:07:02;;;;;;;6.20;5.70;;;15.20;67.10;;;;;;4910648;29;20123;-66
2022/09/11 06:09:28;;;;;;;5.72;5.22;;;15.20;67.20;;;;;;4922187;29;20051;-66
2022/09/11 06:11:53;;;;;;;6.10;5.60;;;15.20;67.40;;;;;;4947902;28;20107;-66
2022/09/11 06:14:20;;;;;;;5.25;4.82;;;15.30;67.50;;;;;;4917231;29;20051;-66
2022/09/11 06:16:47;;;;;;;5.38;4.88;;;15.30;67.50;;;;;;4951622;29;20036;-66
2022/09/11 06:19:12;;;;;;;5.80;5.30;;;15.40;67.80;;;;;;4934708;29;20114;-66
2022/09/11 06:21:39;;;;;;;8.02;5.30;;;15.50;67.90;;;;;;4935997;29;20040;-65
2022/09/11 06:24:05;;;;;;;5.10;4.60;;;15.60;68.20;;;;;;4928767;29;20075;-66
2022/09/11 06:26:31;;;;;;;4.20;3.65;;;15.70;68.10;;;;;;4923514;29;20114;-66
2022/09/11 06:28:57;;;;;;;4.72;4.32;;;15.70;68.20;;;;;;4927224;29;20048;-66
2022/09/11 06:31:25;;;;;;;4.40;4.00;;;15.80;68.30;;;;;;4948666;29;20047;-67
2022/09/11 06:33:51;;;;;;;4.20;3.88;;;15.90;68.20;;;;;;4918081;29;20047;-66
2022/09/11 06:36:18;;;;;;;3.90;3.60;;;16.10;68.20;;;;;;4905218;29;20047;-66
2022/09/11 06:38:45;;;;;;;3.95;3.65;;;16.20;68.00;;;;;;4922268;29;20103;-66
2022/09/11 06:41:13;;;;;;;3.50;3.20;;;16.30;67.90;;;;;;4934954;29;20122;-66
2022/09/11 06:43:39;;;;;;;3.83;3.53;;;16.40;67.70;;;;;;4921319;29;20071;-68
2022/09/11 06:46:11;;;;;;;4.40;3.97;;;16.50;67.60;;;;;;4934215;29;20043;-70
2022/09/11 06:48:37;;;;;;;5.20;4.72;;;16.60;67.50;;;;;;4919166;29;20428;-69
2022/09/11 06:51:04;;;;;;;4.80;4.25;;;16.70;67.60;;;;;;4925414;29;20086;-70
2022/09/11 06:53:29;;;;;;;4.38;3.97;;;16.70;67.50;;;;;;4931947;29;20043;-69
2022/09/11 06:56:00;;;;;;;4.55;4.15;;;16.80;67.40;;;;;;4931873;29;20082;-70
2022/09/11 06:58:26;;;;;;;5.72;5.13;;;16.90;67.40;;;;;;4923313;29;20102;-69
2022/09/11 07:00:52;;;;;;;5.90;5.30;;;16.90;67.30;;;;;;4925453;29;20047;-69
2022/09/11 07:03:18;;;;;;;5.95;5.03;;;17.00;67.40;;;;;;4921681;29;20047;-70
2022/09/11 07:05:47;;;;;;;7.07;6.38;;;17.00;67.60;;;;;;4916092;29;20044;-69
2022/09/11 07:08:12;;;;;;;6.65;5.68;;;17.10;68.20;;;;;;4922228;29;20458;-69
2022/09/11 07:10:38;;;;;;;7.00;6.15;;;17.10;68.40;;;;;;4919664;29;20077;-69
2022/09/11 07:13:04;;;;;;;5.38;4.93;;;17.10;68.70;;;;;;4924054;29;20044;-69
2022/09/11 07:15:31;;;;;;;6.28;5.72;;;17.20;68.70;;;;;;4929265;29;20050;-69
2022/09/11 07:17:57;;;;;;;7.03;6.32;;;17.20;68.80;;;;;;4934211;29;20587;-69
2022/09/11 07:20:23;;;;;;;5.30;4.80;;;17.30;69.00;;;;;;4915966;29;20151;-69
2022/09/11 07:22:48;;;;;;;7.00;6.13;;;17.40;69.00;;;;;;4916305;29;20119;-69
2022/09/11 07:25:14;;;;;;;9.00;7.80;;;17.40;68.90;;;;;;4929871;29;20502;-69
2022/09/11 07:27:40;;;;;;;6.68;5.25;;;17.50;69.30;;;;;;4917082;29;20059;-69
2022/09/11 07:30:07;;;;;;;7.00;6.30;;;17.60;69.50;;;;;;4934882;29;20051;-69
2022/09/11 07:32:32;;;;;;;8.32;7.53;;;17.60;69.50;;;;;;4950576;29;20416;-70
2022/09/11 07:35:01;;;;;;;6.75;6.07;;;17.70;69.90;;;;;;4935012;29;20047;-70
2022/09/11 07:37:26;;;;;;;8.18;7.38;;;17.70;70.00;;;;;;4918678;29;20408;-70
2022/09/11 07:39:52;;;;;;;6.20;5.57;;;17.80;70.10;;;;;;4925431;29;20066;-70
2022/09/11 07:42:18;;;;;;;8.70;7.20;;;17.80;70.10;;;;;;4948889;29;20039;-71
2022/09/11 07:44:43;;;;;;;8.00;6.90;;;17.90;70.30;;;;;;4927282;29;20052;-71
2022/09/11 07:47:09;;;;;;;10.55;9.32;;;17.90;70.70;;;;;;4917370;29;20131;-70
2022/09/11 07:49:34;;;;;;;5.72;5.07;;;18.10;71.40;;;;;;4926391;29;20071;-67
2022/09/11 07:52:02;;;;;;;9.88;6.88;;;18.20;71.60;;;;;;4917554;29;20569;-67
2022/09/11 07:54:28;;;;;;;8.80;7.90;;;18.30;71.30;;;;;;4927684;29;20044;-67
2022/09/11 07:56:55;;;;;;;7.10;6.38;;;18.60;71.70;;;;;;4921242;29;20105;-69
2022/09/11 07:59:21;;;;;;;9.60;6.70;;;18.80;71.40;;;;;;4935793;29;20040;-70
2022/09/11 08:01:48;;;;;;;7.45;5.97;;;19.10;71.10;;;;;;4925982;29;20048;-70
2022/09/11 08:04:14;;;;;;;7.15;5.60;;;19.50;70.40;;;;;;4929004;29;20043;-70
2022/09/11 08:06:40;;;;;;;9.15;7.10;;;19.80;69.70;;;;;;4930242;29;20050;-70
2022/09/11 08:09:09;;;;;;;6.32;5.20;;;20.20;69.00;;;;;;4914663;29;20051;-70
2022/09/11 08:11:41;;;;;;;6.68;4.43;;;20.50;67.90;;;;;;4946510;29;20507;-71
2022/09/11 08:14:10;;;;;;;6.55;4.90;;;20.80;67.00;;;;;;4911868;29;20131;-70
2022/09/11 08:16:36;;;;;;;6.25;5.32;;;21.00;66.30;;;;;;4944707;28;20157;-70
2022/09/11 08:19:02;;;;;;;4.93;4.43;;;21.30;66.10;;;;;;4932266;29;20046;-70
2022/09/11 08:21:28;;;;;;;7.55;4.28;;;21.60;65.30;;;;;;4933409;29;20094;-70
2022/09/11 08:23:53;;;;;;;5.82;4.78;;;21.90;64.20;;;;;;4934851;28;20455;-70
2022/09/11 08:26:29;;;;;;;4.28;3.17;;;22.10;63.10;;;;;;4935114;29;20415;-71
2022/09/11 08:28:56;;;;;;;4.97;3.67;;;22.20;61.70;;;;;;4932525;29;20048;-73
2022/09/11 08:31:27;;;;;;;7.00;4.03;;;22.40;62.00;;;;;;4933027;29;20093;-72
2022/09/11 08:33:54;;;;;;;6.10;3.30;;;22.60;62.00;;;;;;4935118;29;20114;-72
2022/09/11 08:36:20;;;;;;;4.70;3.70;;;22.70;61.60;;;;;;4948724;29;20052;-70
2022/09/11 08:38:46;;;;;;;4.43;3.65;;;23.00;60.50;;;;;;4932821;29;20074;-70
2022/09/11 08:41:45;;;;;;;6.93;2.90;;;23.10;60.00;;;;;;4932973;29;20044;-71
2022/09/11 08:44:20;;;;;;;5.00;3.53;;;23.30;59.70;;;;;;4933079;29;20056;-71
2022/09/11 08:46:54;;;;;;;4.90;3.28;;;23.40;59.30;;;;;;4932095;29;20040;-69
2022/09/11 08:49:24;;;;;;;5.25;2.53;;;23.60;58.90;;;;;;4928092;29;20451;-71
2022/09/11 08:51:56;;;;;;;4.13;3.13;;;23.70;57.80;;;;;;4928043;29;20050;-71
2022/09/11 08:54:26;;;;;;;3.85;2.80;;;23.80;57.70;;;;;;4947405;28;20563;-71
2022/09/11 08:56:59;;;;;;;4.45;2.85;;;24.00;57.30;;;;;;4931737;29;20094;-71
2022/09/11 08:59:25;;;;;;;6.40;3.60;;;24.20;56.90;;;;;;4933257;29;20046;-71
2022/09/11 09:01:51;;;;;;;5.95;3.05;;;24.40;56.40;;;;;;4932355;29;20055;-71
2022/09/11 09:04:38;;;;;;;3.55;2.90;;;24.40;55.70;;;;;;4949652;28;20048;-71
2022/09/11 09:07:21;;;;;;;5.53;2.83;;;24.40;55.10;;;;;;4950406;28;20079;-71
2022/09/11 09:10:07;;;;;;;4.22;2.97;;;24.40;55.20;;;;;;4933237;29;20059;-71
2022/09/11 09:12:42;;;;;;;3.72;2.33;;;24.40;54.90;;;;;;4933899;29;20466;-71
2022/09/11 09:15:41;;;;;;;5.65;3.25;;;24.30;54.90;;;;;;4929870;29;20043;-72
2022/09/11 09:18:12;;;;;;;3.80;2.53;;;24.30;55.10;;;;;;4930439;29;20499;-72
2022/09/11 09:20:48;;;;;;;5.30;2.42;;;24.30;55.10;;;;;;4948022;28;20055;-72
2022/09/11 09:23:22;;;;;;;3.95;2.40;;;24.30;55.10;;;;;;4931447;29;20071;-72
2022/09/11 09:25:51;;;;;;;3.80;2.28;;;24.40;54.60;;;;;;4933203;29;20627;-72
2022/09/11 09:28:25;;;;;;;3.70;2.25;;;24.50;54.70;;;;;;4930052;28;20047;-74
2022/09/11 09:30:58;;;;;;;3.92;2.03;;;24.60;54.10;;;;;;4930588;29;20040;-72
2022/09/11 09:33:31;;;;;;;3.50;2.03;;;24.60;54.20;;;;;;4929338;29;20066;-70
2022/09/11 09:36:11;;;;;;;3.42;1.90;;;24.80;53.40;;;;;;4931074;29;20051;-72
2022/09/11 09:38:37;;;;;;;4.18;1.80;;;24.90;53.30;;;;;;4946678;29;20050;-73
2022/09/11 09:41:28;;;;;;;5.30;2.60;;;25.00;52.90;;;;;;4929914;29;20036;-72
2022/09/11 09:44:03;;;;;;;3.70;2.47;;;25.10;52.90;;;;;;4948981;28;20071;-72
2022/09/11 09:46:42;;;;;;;3.67;1.92;;;25.30;52.50;;;;;;4930946;29;20395;-70
2022/09/11 09:49:17;;;;;;;4.88;2.30;;;25.40;51.90;;;;;;4931155;29;20043;-70
2022/09/11 09:51:43;;;;;;;5.68;2.17;;;25.50;52.10;;;;;;4930313;29;20056;-70
2022/09/11 09:54:16;;;;;;;3.15;1.75;;;25.70;52.30;;;;;;4947782;28;20054;-70
2022/09/11 09:56:55;;;;;;;3.05;1.75;;;25.80;52.00;;;;;;4948321;28;20086;-70
2022/09/11 09:59:30;;;;;;;3.53;1.50;;;25.90;51.40;;;;;;4932300;29;20500;-69
2022/09/11 10:01:56;;;;;;;5.00;1.63;;;26.00;50.70;;;;;;4930914;29;20036;-69
2022/09/11 10:04:28;;;;;;;3.55;1.50;;;26.00;50.40;;;;;;4930587;29;20062;-70
2022/09/11 10:07:10;;;;;;;3.70;1.70;;;26.00;50.10;;;;;;4933057;29;20058;-71
2022/09/11 10:09:44;;;;;;;2.78;1.10;;;25.90;50.00;;;;;;4944679;28;20143;-72
2022/09/11 10:12:19;;;;;;;2.67;1.50;;;25.80;50.00;;;;;;4929984;29;20103;-71
2022/09/11 10:15:00;;;;;;;3.17;1.50;;;25.70;49.90;;;;;;4928601;29;20060;-71
2022/09/11 10:17:32;;;;;;;2.97;1.73;;;25.70;49.90;;;;;;4946724;29;20397;-71
2022/09/11 10:20:22;;;;;;;2.88;1.33;;;25.60;49.90;;;;;;4914446;29;20050;-71
2022/09/11 10:22:49;;;;;;;2.83;1.10;;;25.50;50.00;;;;;;4946539;28;20091;-71
2022/09/11 10:25:26;;;;;;;3.88;1.38;;;25.40;49.30;;;;;;4928365;29;20059;-69
2022/09/11 10:28:03;;;;;;;3.58;1.65;;;25.40;48.90;;;;;;4915880;29;20056;-69
2022/09/11 10:30:34;;;;;;;4.60;1.73;;;25.20;48.80;;;;;;4946294;29;20107;-69
2022/09/11 10:33:15;;;;;;;2.20;1.27;;;25.10;49.20;;;;;;4929312;29;20134;-69
2022/09/11 10:35:54;;;;;;;3.75;1.60;;;25.10;49.80;;;;;;4932163;29;20592;-69
2022/09/11 10:38:41;;;;;;;2.20;0.98;;;25.10;49.20;;;;;;4931660;29;20040;-69
2022/09/11 10:41:13;;;;;;;2.22;1.42;;;25.00;49.70;;;;;;4908439;29;20070;-69
2022/09/11 10:44:01;;;;;;;1.45;0.95;;;25.00;49.70;;;;;;4931217;29;20055;-72
2022/09/11 10:46:28;;;;;;;5.72;1.42;;;25.00;50.00;;;;;;4930336;29;20040;-72
2022/09/11 10:49:18;;;;;;;3.15;1.58;;;24.90;50.10;;;;;;4943595;29;20052;-71
2022/09/11 10:51:59;;;;;;;3.42;1.40;;;24.80;50.30;;;;;;4929367;29;20483;-72
2022/09/11 10:54:47;;;;;;;3.92;1.40;;;24.80;50.20;;;;;;4929543;29;20089;-71
2022/09/11 10:57:36;;;;;;;3.83;1.35;;;24.80;50.30;;;;;;4943809;28;20040;-72
2022/09/11 11:00:24;;;;;;;3.83;1.50;;;24.70;50.00;;;;;;4946464;29;20476;-72
2022/09/11 11:03:04;;;;;;;3.00;1.20;;;24.70;50.00;;;;;;4946281;29;20150;-72
2022/09/11 11:05:48;;;;;;;3.53;1.30;;;24.80;49.70;;;;;;4929086;29;20059;-72
2022/09/11 11:08:44;;;;;;;2.58;1.33;;;24.80;49.80;;;;;;4930489;29;20051;-72
2022/09/11 11:11:39;;;;;;;2.78;1.10;;;24.80;50.00;;;;;;4945585;28;20083;-72
2022/09/11 11:14:16;;;;;;;2.45;1.25;;;24.90;50.20;;;;;;4943859;28;20380;-72
2022/09/11 11:17:06;;;;;;;3.97;1.65;;;24.90;50.60;;;;;;4945445;28;20094;-72
2022/09/11 11:19:33;;;;;;;4.30;1.38;;;25.00;50.30;;;;;;4929277;29;20075;-72
2022/09/11 11:22:07;;;;;;;3.42;1.50;;;25.10;50.10;;;;;;4946708;29;20087;-72
2022/09/11 11:24:39;;;;;;;3.78;1.48;;;25.10;49.60;;;;;;4929164;29;20051;-72
2022/09/11 11:27:56;;;;;;;4.28;1.50;;;25.20;49.60;;;;;;4946944;29;20106;-72
2022/09/11 11:30:33;;;;;;;2.25;1.02;;;25.30;49.60;;;;;;4926244;29;20063;-72
2022/09/11 11:33:24;;;;;;;3.47;1.42;;;25.30;49.60;;;;;;4927704;29;20058;-72
2022/09/11 11:36:09;;;;;;;2.65;1.30;;;25.40;49.10;;;;;;4947133;29;20546;-72
2022/09/11 11:38:46;;;;;;;1.95;1.08;;;25.40;48.80;;;;;;4945099;28;20075;-72
2022/09/11 11:41:21;;;;;;;3.45;1.45;;;25.40;48.60;;;;;;4946478;29;20516;-72
2022/09/11 11:43:50;;;;;;;2.15;1.00;;;25.50;48.00;;;;;;4928780;29;20127;-72
2022/09/11 11:46:22;;;;;;;3.35;1.40;;;25.50;48.20;;;;;;4945221;29;20523;-72
2022/09/11 11:48:48;;;;;;;2.15;1.02;;;25.50;47.60;;;;;;4929393;29;20462;-72
2022/09/11 11:51:19;;;;;;;4.00;1.50;;;25.50;47.60;;;;;;4946441;29;20138;-72
2022/09/11 11:54:12;;;;;;;2.65;1.10;;;25.50;47.70;;;;;;4927949;29;20160;-72
2022/09/11 11:56:55;;;;;;;2.70;1.40;;;25.60;46.90;;;;;;4927178;29;20051;-72
2022/09/11 11:59:45;;;;;;;3.13;1.83;;;25.60;46.20;;;;;;4928001;29;20658;-71
2022/09/11 12:02:15;;;;;;;3.42;0.98;;;25.60;46.60;;;;;;4946314;29;20058;-72
2022/09/11 12:04:49;;;;;;;2.10;0.93;;;25.60;46.60;;;;;;4943645;29;20039;-72
2022/09/11 12:07:20;;;;;;;1.80;0.95;;;25.70;46.30;;;;;;4930254;29;20067;-72
2022/09/11 12:09:51;;;;;;;3.47;1.02;;;25.70;45.70;;;;;;4943953;28;20118;-72
2022/09/11 12:12:18;;;;;;;2.25;1.02;;;25.70;45.30;;;;;;4945424;28;20059;-72
2022/09/11 12:15:08;;;;;;;1.70;0.90;;;25.70;45.30;;;;;;4929838;29;20040;-72
2022/09/11 12:17:36;;;;;;;3.47;1.05;;;25.70;45.50;;;;;;4913560;29;20060;-72
2022/09/11 12:20:10;;;;;;;3.20;1.33;;;25.70;44.30;;;;;;4945593;28;20043;-72
2022/09/11 12:22:38;;;;;;;1.92;0.82;;;25.70;44.90;;;;;;4943629;29;20082;-72
2022/09/11 12:25:27;;;;;;;1.80;0.95;;;25.60;45.30;;;;;;4930184;29;20372;-72
2022/09/11 12:28:09;;;;;;;1.60;0.90;;;25.60;45.50;;;;;;4923753;29;20059;-72
2022/09/11 12:30:54;;;;;;;3.47;1.05;;;25.70;46.50;;;;;;4921227;29;20119;-72
2022/09/11 12:33:56;;;;;;;4.13;1.35;;;25.70;46.30;;;;;;4916733;29;20051;-72
2022/09/11 12:36:32;;;;;;;2.50;1.00;;;25.70;45.60;;;;;;4902839;29;20036;-72
2022/09/11 12:39:20;;;;;;;2.58;1.02;;;25.70;45.60;;;;;;4928138;29;20084;-70
2022/09/11 12:41:46;;;;;;;3.40;1.10;;;25.80;45.60;;;;;;4919533;29;20518;-72
2022/09/11 12:44:47;;;;;;;1.95;0.77;;;25.80;45.70;;;;;;4940497;29;20088;-72
2022/09/11 12:47:27;;;;;;;2.45;0.98;;;25.80;46.40;;;;;;4876761;29;20350;-72
2022/09/11 12:50:13;;;;;;;2.17;0.90;;;25.80;46.10;;;;;;4939268;28;20499;-70
2022/09/11 12:52:42;;;;;;;3.13;0.85;;;25.90;45.90;;;;;;4929697;29;20044;-71
2022/09/11 12:55:30;;;;;;;4.82;1.30;;;25.90;45.80;;;;;;4945497;28;20126;-71
2022/09/11 12:58:01;;;;;;;1.60;0.80;;;25.90;46.10;;;;;;4945121;29;20046;-71
2022/09/11 13:00:38;;;;;;;3.08;1.10;;;25.90;45.40;;;;;;4929850;29;20044;-71
2022/09/11 13:03:05;;;;;;;3.35;0.85;;;25.90;44.90;;;;;;4929877;29;20464;-71
2022/09/11 13:05:36;;;;;;;1.98;1.00;;;25.90;45.20;;;;;;4931406;29;20044;-71
2022/09/11 13:08:15;;;;;;;4.00;0.93;;;25.90;45.20;;;;;;4949603;28;20071;-71
2022/09/11 13:10:41;;;;;;;3.58;1.27;;;26.00;45.70;;;;;;4949549;29;20479;-71
2022/09/11 13:13:36;;;;;;;2.47;0.82;;;25.90;45.80;;;;;;4932808;29;20478;-71